sensor_id;sensor_type;location;lat;lon;timestamp;pressure;altitude;pressure_sealevel;temperature;humidity
76086;BME280;64791;0.000;0.000;2023-05-10T00:00:56;94087.66;;;6.38;86.51
76086;BME280;64791;0.000;0.000;2023-05-10T00:03:22;94089.13;;;6.39;85.75
76086;BME280;64791;0.000;0.000;2023-05-10T00:05:48;94082.09;;;6.44;85.91
76086;BME280;64791;0.000;0.000;2023-05-10T00:08:13;94078.34;;;6.47;85.53
76086;BME280;64791;0.000;0.000;2023-05-10T00:10:39;94067.22;;;6.39;85.72
76086;BME280;64791;0.000;0.000;2023-05-10T00:13:05;94082.41;;;6.40;85.09
76086;BME280;64791;0.000;0.000;2023-05-10T00:15:31;94085.47;;;6.31;85.10
76086;BME280;64791;0.000;0.000;2023-05-10T00:17:56;94073.41;;;6.21;85.76
76086;BME280;64791;0.000;0.000;2023-05-10T00:20:22;94077.38;;;6.20;86.32
76086;BME280;64791;0.000;0.000;2023-05-10T00:22:48;94083.72;;;6.34;85.74
76086;BME280;64791;0.000;0.000;2023-05-10T00:25:13;94080.56;;;6.24;86.19
76086;BME280;64791;0.000;0.000;2023-05-10T00:27:39;94076.59;;;6.25;86.38
76086;BME280;64791;0.000;0.000;2023-05-10T00:30:05;94082.28;;;6.27;86.54
76086;BME280;64791;0.000;0.000;2023-05-10T00:32:31;94082.56;;;6.24;85.73
76086;BME280;64791;0.000;0.000;2023-05-10T00:34:57;94078.81;;;6.27;85.65
76086;BME280;64791;0.000;0.000;2023-05-10T00:37:22;94081.88;;;6.18;85.62
76086;BME280;64791;0.000;0.000;2023-05-10T00:39:48;94078.47;;;6.12;85.84
76086;BME280;64791;0.000;0.000;2023-05-10T00:42:14;94074.03;;;6.09;85.43
76086;BME280;64791;0.000;0.000;2023-05-10T00:44:40;94070.34;;;6.06;85.29
76086;BME280;64791;0.000;0.000;2023-05-10T00:47:06;94078.09;;;6.02;85.76
76086;BME280;64791;0.000;0.000;2023-05-10T00:49:32;94068.09;;;6.05;85.72
76086;BME280;64791;0.000;0.000;2023-05-10T00:51:57;94064.69;;;5.98;85.86
76086;BME280;64791;0.000;0.000;2023-05-10T00:54:23;94064.00;;;5.92;86.05
76086;BME280;64791;0.000;0.000;2023-05-10T00:56:50;94060.06;;;5.88;86.54
76086;BME280;64791;0.000;0.000;2023-05-10T00:59:16;94068.69;;;5.97;85.99
76086;BME280;64791;0.000;0.000;2023-05-10T01:01:43;94066.28;;;5.88;86.13
76086;BME280;64791;0.000;0.000;2023-05-10T01:04:10;94066.56;;;5.85;86.30
76086;BME280;64791;0.000;0.000;2023-05-10T01:06:37;94067.28;;;5.85;86.33
76086;BME280;64791;0.000;0.000;2023-05-10T01:09:03;94060.56;;;5.86;86.12
76086;BME280;64791;0.000;0.000;2023-05-10T01:11:28;94065.94;;;5.97;85.48
76086;BME280;64791;0.000;0.000;2023-05-10T01:13:55;94061.59;;;5.83;86.07
76086;BME280;64791;0.000;0.000;2023-05-10T01:16:22;94050.88;;;5.85;86.25
76086;BME280;64791;0.000;0.000;2023-05-10T01:18:47;94048.13;;;5.85;85.90
76086;BME280;64791;0.000;0.000;2023-05-10T01:34:25;94043.53;;;5.75;85.41
76086;BME280;64791;0.000;0.000;2023-05-10T01:37:15;94042.31;;;5.70;85.68
76086;BME280;64791;0.000;0.000;2023-05-10T01:39:45;94033.13;;;5.68;85.55
76086;BME280;64791;0.000;0.000;2023-05-10T01:42:23;94032.44;;;5.62;85.59
76086;BME280;64791;0.000;0.000;2023-05-10T01:45:07;94030.25;;;5.60;85.98
76086;BME280;64791;0.000;0.000;2023-05-10T01:47:42;94020.09;;;5.55;85.37
76086;BME280;64791;0.000;0.000;2023-05-10T01:50:18;94035.25;;;5.56;84.87
76086;BME280;64791;0.000;0.000;2023-05-10T01:52:47;94027.81;;;5.51;84.95
76086;BME280;64791;0.000;0.000;2023-05-10T01:55:15;94032.63;;;5.45;85.11
76086;BME280;64791;0.000;0.000;2023-05-10T01:57:42;94035.53;;;5.53;85.29
76086;BME280;64791;0.000;0.000;2023-05-10T02:00:09;94032.84;;;5.47;84.39
76086;BME280;64791;0.000;0.000;2023-05-10T02:02:43;94029.75;;;5.32;84.24
76086;BME280;64791;0.000;0.000;2023-05-10T02:05:10;94026.59;;;5.23;83.47
76086;BME280;64791;0.000;0.000;2023-05-10T02:07:37;94032.63;;;5.15;83.60
76086;BME280;64791;0.000;0.000;2023-05-10T02:10:04;94036.28;;;5.24;82.36
76086;BME280;64791;0.000;0.000;2023-05-10T02:12:30;94034.91;;;5.06;82.81
76086;BME280;64791;0.000;0.000;2023-05-10T02:14:57;94032.03;;;4.93;82.75
76086;BME280;64791;0.000;0.000;2023-05-10T02:17:24;94034.34;;;4.78;83.03
76086;BME280;64791;0.000;0.000;2023-05-10T02:19:51;94027.13;;;4.80;82.62
76086;BME280;64791;0.000;0.000;2023-05-10T02:22:18;94015.25;;;4.72;82.87
76086;BME280;64791;0.000;0.000;2023-05-10T02:24:44;94037.69;;;4.60;82.66
76086;BME280;64791;0.000;0.000;2023-05-10T02:27:10;94039.72;;;4.48;82.77
76086;BME280;64791;0.000;0.000;2023-05-10T02:29:36;94030.31;;;4.43;83.40
76086;BME280;64791;0.000;0.000;2023-05-10T02:32:02;94036.31;;;4.36;82.80
76086;BME280;64791;0.000;0.000;2023-05-10T02:34:29;94028.28;;;4.55;83.25
76086;BME280;64791;0.000;0.000;2023-05-10T02:36:55;94032.09;;;4.41;83.71
76086;BME280;64791;0.000;0.000;2023-05-10T02:39:21;94030.31;;;4.43;82.91
76086;BME280;64791;0.000;0.000;2023-05-10T02:41:48;94026.38;;;4.39;82.92
76086;BME280;64791;0.000;0.000;2023-05-10T02:44:20;94032.34;;;4.37;83.69
76086;BME280;64791;0.000;0.000;2023-05-10T02:46:45;94032.34;;;4.37;83.74
76086;BME280;64791;0.000;0.000;2023-05-10T02:49:12;94028.59;;;4.40;83.77
76086;BME280;64791;0.000;0.000;2023-05-10T02:51:40;94025.84;;;4.46;83.23
76086;BME280;64791;0.000;0.000;2023-05-10T02:54:09;94026.59;;;4.47;83.83
76086;BME280;64791;0.000;0.000;2023-05-10T02:56:36;94026.38;;;4.39;82.97
76086;BME280;64791;0.000;0.000;2023-05-10T02:59:06;94036.22;;;4.53;82.55
76086;BME280;64791;0.000;0.000;2023-05-10T03:01:31;94039.03;;;4.42;83.10
76086;BME280;64791;0.000;0.000;2023-05-10T03:03:57;94036.81;;;4.40;83.47
76086;BME280;64791;0.000;0.000;2023-05-10T03:06:23;94034.81;;;4.41;84.06
76086;BME280;64791;0.000;0.000;2023-05-10T03:08:49;94039.03;;;4.42;83.83
76086;BME280;64791;0.000;0.000;2023-05-10T03:14:07;94036.00;;;4.45;83.89
76086;BME280;64791;0.000;0.000;2023-05-10T03:16:45;94038.53;;;4.38;83.59
76086;BME280;64791;0.000;0.000;2023-05-10T03:19:22;94038.84;;;4.70;82.82
76086;BME280;64791;0.000;0.000;2023-05-10T03:21:50;94042.69;;;4.56;82.88
76086;BME280;64791;0.000;0.000;2023-05-10T03:24:20;94037.88;;;4.67;82.28
76086;BME280;64791;0.000;0.000;2023-05-10T03:26:47;94044.19;;;4.51;82.63
76086;BME280;64791;0.000;0.000;2023-05-10T03:29:16;94040.41;;;4.60;82.45
76086;BME280;64791;0.000;0.000;2023-05-10T03:31:42;94047.84;;;4.65;82.69
76086;BME280;64791;0.000;0.000;2023-05-10T03:34:08;94043.63;;;4.64;83.73
76086;BME280;64791;0.000;0.000;2023-05-10T03:36:33;94048.97;;;4.86;83.22
76086;BME280;64791;0.000;0.000;2023-05-10T03:39:00;94047.00;;;4.81;82.65
76086;BME280;64791;0.000;0.000;2023-05-10T03:41:26;94044.56;;;4.72;82.50
76086;BME280;64791;0.000;0.000;2023-05-10T03:43:52;94045.31;;;4.72;83.09
76086;BME280;64791;0.000;0.000;2023-05-10T03:46:17;94050.81;;;4.61;82.69
76086;BME280;64791;0.000;0.000;2023-05-10T03:48:44;94049.59;;;4.62;83.49
76086;BME280;64791;0.000;0.000;2023-05-10T03:51:09;94060.53;;;4.62;83.73
76086;BME280;64791;0.000;0.000;2023-05-10T03:53:35;94060.47;;;4.68;83.74
76086;BME280;64791;0.000;0.000;2023-05-10T03:56:01;94056.47;;;4.74;83.66
76086;BME280;64791;0.000;0.000;2023-05-10T03:58:26;94068.59;;;4.84;83.19
76086;BME280;64791;0.000;0.000;2023-05-10T04:00:52;94064.88;;;4.87;83.51
76086;BME280;64791;0.000;0.000;2023-05-10T04:03:18;94066.59;;;4.90;83.34
76086;BME280;64791;0.000;0.000;2023-05-10T04:05:43;94067.09;;;4.89;83.61
76086;BME280;64791;0.000;0.000;2023-05-10T04:08:09;94083.50;;;4.83;83.20
76086;BME280;64791;0.000;0.000;2023-05-10T04:10:34;94073.31;;;4.78;83.54
76086;BME280;64791;0.000;0.000;2023-05-10T04:13:00;94071.84;;;4.77;83.23
76086;BME280;64791;0.000;0.000;2023-05-10T04:15:26;94073.75;;;4.99;83.99
76086;BME280;64791;0.000;0.000;2023-05-10T04:17:51;94076.94;;;5.03;83.66
76086;BME280;64791;0.000;0.000;2023-05-10T04:20:17;94074.69;;;5.07;83.20
76086;BME280;64791;0.000;0.000;2023-05-10T04:22:42;94078.38;;;5.09;83.01
76086;BME280;64791;0.000;0.000;2023-05-10T04:25:08;94073.84;;;5.17;83.66
76086;BME280;64791;0.000;0.000;2023-05-10T04:27:34;94073.31;;;5.25;84.10
76086;BME280;64791;0.000;0.000;2023-05-10T04:29:59;94065.59;;;5.23;82.86
76086;BME280;64791;0.000;0.000;2023-05-10T04:32:25;94068.09;;;5.51;82.43
76086;BME280;64791;0.000;0.000;2023-05-10T04:34:50;94072.03;;;5.61;81.93
76086;BME280;64791;0.000;0.000;2023-05-10T04:37:17;94077.81;;;5.52;81.54
76086;BME280;64791;0.000;0.000;2023-05-10T04:39:43;94075.25;;;5.59;81.45
76086;BME280;64791;0.000;0.000;2023-05-10T04:42:08;94076.66;;;5.71;81.86
76086;BME280;64791;0.000;0.000;2023-05-10T04:44:34;94074.22;;;5.62;80.83
76086;BME280;64791;0.000;0.000;2023-05-10T04:47:00;94080.78;;;5.54;82.24
76086;BME280;64791;0.000;0.000;2023-05-10T04:49:28;94076.50;;;5.58;82.35
76086;BME280;64791;0.000;0.000;2023-05-10T04:51:56;94071.78;;;5.59;82.47
76086;BME280;64791;0.000;0.000;2023-05-10T04:54:21;94081.75;;;5.56;82.54
76086;BME280;64791;0.000;0.000;2023-05-10T04:56:47;94080.53;;;5.52;82.06
76086;BME280;64791;0.000;0.000;2023-05-10T04:59:13;94081.69;;;5.62;82.13
76086;BME280;64791;0.000;0.000;2023-05-10T05:01:39;94085.41;;;5.64;81.96
76086;BME280;64791;0.000;0.000;2023-05-10T05:04:04;94090.13;;;5.64;81.92
76086;BME280;64791;0.000;0.000;2023-05-10T05:06:30;94082.38;;;5.68;82.55
76086;BME280;64791;0.000;0.000;2023-05-10T05:08:56;94085.88;;;5.68;81.79
76086;BME280;64791;0.000;0.000;2023-05-10T05:11:21;94087.50;;;5.82;81.40
76086;BME280;64791;0.000;0.000;2023-05-10T05:13:47;94087.28;;;5.75;82.14
76086;BME280;64791;0.000;0.000;2023-05-10T05:16:13;94086.28;;;5.78;82.17
76086;BME280;64791;0.000;0.000;2023-05-10T05:18:38;94089.47;;;5.82;82.23
76086;BME280;64791;0.000;0.000;2023-05-10T05:21:13;94091.69;;;5.83;82.05
76086;BME280;64791;0.000;0.000;2023-05-10T05:23:38;94085.72;;;5.85;82.49
76086;BME280;64791;0.000;0.000;2023-05-10T05:26:04;94090.47;;;5.84;81.98
76086;BME280;64791;0.000;0.000;2023-05-10T05:28:29;94098.22;;;5.80;81.38
76086;BME280;64791;0.000;0.000;2023-05-10T05:30:58;94096.06;;;5.97;81.60
76086;BME280;64791;0.000;0.000;2023-05-10T05:33:23;94101.53;;;5.97;81.62
76086;BME280;64791;0.000;0.000;2023-05-10T05:35:49;94100.72;;;6.03;82.15
76086;BME280;64791;0.000;0.000;2023-05-10T05:38:16;94107.38;;;6.07;81.70
76086;BME280;64791;0.000;0.000;2023-05-10T05:40:43;94101.91;;;6.07;81.26
76086;BME280;64791;0.000;0.000;2023-05-10T05:43:08;94110.59;;;6.11;82.16
76086;BME280;64791;0.000;0.000;2023-05-10T05:45:34;94108.03;;;6.19;82.42
76086;BME280;64791;0.000;0.000;2023-05-10T05:48:00;94116.69;;;6.23;82.03
76086;BME280;64791;0.000;0.000;2023-05-10T05:50:25;94111.78;;;6.16;81.33
76086;BME280;64791;0.000;0.000;2023-05-10T05:52:51;94111.03;;;6.15;81.15
76086;BME280;64791;0.000;0.000;2023-05-10T05:55:17;94115.72;;;6.20;80.99
76086;BME280;64791;0.000;0.000;2023-05-10T05:57:42;94116.69;;;6.23;81.34
76086;BME280;64791;0.000;0.000;2023-05-10T06:00:08;94119.38;;;6.28;81.01
76086;BME280;64791;0.000;0.000;2023-05-10T06:02:39;94120.97;;;6.42;80.09
76086;BME280;64791;0.000;0.000;2023-05-10T06:05:05;94117.78;;;6.38;80.46
76086;BME280;64791;0.000;0.000;2023-05-10T06:07:31;94119.22;;;6.45;80.33
76086;BME280;64791;0.000;0.000;2023-05-10T06:09:57;94117.72;;;6.44;80.29
76086;BME280;64791;0.000;0.000;2023-05-10T06:12:23;94121.47;;;6.84;79.17
76086;BME280;64791;0.000;0.000;2023-05-10T06:14:49;94117.31;;;6.77;79.83
76086;BME280;64791;0.000;0.000;2023-05-10T06:17:14;94111.69;;;6.69;78.30
76086;BME280;64791;0.000;0.000;2023-05-10T06:19:40;94108.72;;;6.67;79.05
76086;BME280;64791;0.000;0.000;2023-05-10T06:22:05;94115.69;;;6.68;79.18
76086;BME280;64791;0.000;0.000;2023-05-10T06:24:31;94115.84;;;6.76;79.49
76086;BME280;64791;0.000;0.000;2023-05-10T06:26:56;94128.34;;;6.71;78.28
76086;BME280;64791;0.000;0.000;2023-05-10T06:29:25;94132.41;;;6.65;78.59
76086;BME280;64791;0.000;0.000;2023-05-10T06:31:51;94132.50;;;6.78;79.97
76086;BME280;64791;0.000;0.000;2023-05-10T06:34:16;94127.03;;;6.97;79.44
76086;BME280;64791;0.000;0.000;2023-05-10T06:36:42;94124.13;;;7.08;78.53
76086;BME280;64791;0.000;0.000;2023-05-10T06:39:07;94126.50;;;7.17;79.06
76086;BME280;64791;0.000;0.000;2023-05-10T06:41:33;94123.75;;;7.35;78.07
76086;BME280;64791;0.000;0.000;2023-05-10T06:43:58;94128.09;;;7.31;77.37
76086;BME280;64791;0.000;0.000;2023-05-10T06:46:24;94118.75;;;7.39;78.20
76086;BME280;64791;0.000;0.000;2023-05-10T06:48:49;94127.16;;;7.23;77.64
76086;BME280;64791;0.000;0.000;2023-05-10T06:51:15;94130.31;;;7.32;77.48
76086;BME280;64791;0.000;0.000;2023-05-10T06:53:41;94130.81;;;7.49;77.84
76086;BME280;64791;0.000;0.000;2023-05-10T06:56:06;94128.31;;;7.65;77.32
76086;BME280;64791;0.000;0.000;2023-05-10T06:58:32;94139.09;;;7.63;78.13
76086;BME280;64791;0.000;0.000;2023-05-10T07:01:02;94126.44;;;7.73;75.31
76086;BME280;64791;0.000;0.000;2023-05-10T07:03:28;94133.81;;;7.65;75.97
76086;BME280;64791;0.000;0.000;2023-05-10T07:05:53;94121.56;;;7.66;75.99
76086;BME280;64791;0.000;0.000;2023-05-10T07:08:20;94128.91;;;7.89;76.02
76086;BME280;64791;0.000;0.000;2023-05-10T07:10:46;94116.66;;;7.77;73.50
76086;BME280;64791;0.000;0.000;2023-05-10T07:13:11;94118.25;;;7.86;76.17
76086;BME280;64791;0.000;0.000;2023-05-10T07:15:37;94125.09;;;7.79;75.34
76086;BME280;64791;0.000;0.000;2023-05-10T07:18:02;94127.44;;;7.88;75.59
76086;BME280;64791;0.000;0.000;2023-05-10T07:20:29;94127.94;;;7.74;75.77
76086;BME280;64791;0.000;0.000;2023-05-10T07:22:55;94131.41;;;8.06;73.26
76086;BME280;64791;0.000;0.000;2023-05-10T07:25:20;94126.84;;;8.08;73.42
76086;BME280;64791;0.000;0.000;2023-05-10T07:27:46;94138.91;;;8.18;74.63
76086;BME280;64791;0.000;0.000;2023-05-10T07:30:13;94135.22;;;8.16;75.00
76086;BME280;64791;0.000;0.000;2023-05-10T07:32:39;94138.09;;;8.37;73.70
76086;BME280;64791;0.000;0.000;2023-05-10T07:35:07;94139.13;;;8.20;73.22
76086;BME280;64791;0.000;0.000;2023-05-10T07:37:33;94140.91;;;8.18;73.63
76086;BME280;64791;0.000;0.000;2023-05-10T07:39:58;94146.25;;;8.42;73.54
76086;BME280;64791;0.000;0.000;2023-05-10T07:42:24;94141.69;;;8.32;74.45
76086;BME280;64791;0.000;0.000;2023-05-10T07:44:50;94139.56;;;8.24;74.87
76086;BME280;64791;0.000;0.000;2023-05-10T07:47:16;94133.09;;;8.09;74.87
76086;BME280;64791;0.000;0.000;2023-05-10T07:49:41;94138.50;;;8.14;74.92
76086;BME280;64791;0.000;0.000;2023-05-10T07:52:07;94146.00;;;8.14;74.19
76086;BME280;64791;0.000;0.000;2023-05-10T07:54:33;94142.78;;;7.97;74.21
76086;BME280;64791;0.000;0.000;2023-05-10T07:56:59;94144.69;;;7.70;74.45
76086;BME280;64791;0.000;0.000;2023-05-10T07:59:25;94146.47;;;7.86;74.19
76086;BME280;64791;0.000;0.000;2023-05-10T08:01:50;94152.56;;;7.79;73.54
76086;BME280;64791;0.000;0.000;2023-05-10T08:04:16;94151.84;;;7.92;73.77
76086;BME280;64791;0.000;0.000;2023-05-10T08:06:42;94161.63;;;8.06;73.30
76086;BME280;64791;0.000;0.000;2023-05-10T08:09:08;94152.78;;;8.52;73.04
76086;BME280;64791;0.000;0.000;2023-05-10T08:11:33;94153.53;;;8.53;70.87
76086;BME280;64791;0.000;0.000;2023-05-10T08:13:59;94158.72;;;8.69;70.28
76086;BME280;64791;0.000;0.000;2023-05-10T08:16:25;94157.56;;;8.65;72.13
76086;BME280;64791;0.000;0.000;2023-05-10T08:18:51;94154.38;;;8.48;72.20
76086;BME280;64791;0.000;0.000;2023-05-10T08:21:16;94163.59;;;8.76;71.46
76086;BME280;64791;0.000;0.000;2023-05-10T08:23:42;94163.38;;;8.74;72.60
76086;BME280;64791;0.000;0.000;2023-05-10T08:26:11;94155.53;;;8.65;72.75
76086;BME280;64791;0.000;0.000;2023-05-10T08:28:37;94153.75;;;8.81;71.59
76086;BME280;64791;0.000;0.000;2023-05-10T08:31:02;94159.66;;;8.98;71.39
76086;BME280;64791;0.000;0.000;2023-05-10T08:33:28;94157.88;;;8.87;72.69
76086;BME280;64791;0.000;0.000;2023-05-10T08:35:55;94157.97;;;8.82;71.14
76086;BME280;64791;0.000;0.000;2023-05-10T08:38:20;94157.00;;;8.92;71.16
76086;BME280;64791;0.000;0.000;2023-05-10T08:40:46;94154.72;;;8.83;71.89
76086;BME280;64791;0.000;0.000;2023-05-10T08:43:14;94161.38;;;8.75;71.71
76086;BME280;64791;0.000;0.000;2023-05-10T08:45:43;94154.16;;;8.46;70.80
76086;BME280;64791;0.000;0.000;2023-05-10T08:48:10;94148.56;;;8.38;71.26
76086;BME280;64791;0.000;0.000;2023-05-10T08:50:37;94153.41;;;8.58;72.23
76086;BME280;64791;0.000;0.000;2023-05-10T08:53:04;94162.94;;;8.44;71.55
76086;BME280;64791;0.000;0.000;2023-05-10T08:55:30;94159.78;;;8.66;70.92
76086;BME280;64791;0.000;0.000;2023-05-10T08:57:58;94163.69;;;8.45;71.28
76086;BME280;64791;0.000;0.000;2023-05-10T09:00:23;94151.84;;;8.63;69.90
76086;BME280;64791;0.000;0.000;2023-05-10T09:02:50;94165.38;;;8.61;71.34
76086;BME280;64791;0.000;0.000;2023-05-10T09:05:15;94166.59;;;9.38;69.84
76086;BME280;64791;0.000;0.000;2023-05-10T09:07:42;94155.78;;;9.40;69.40
76086;BME280;64791;0.000;0.000;2023-05-10T09:10:08;94162.69;;;9.34;68.28
76086;BME280;64791;0.000;0.000;2023-05-10T09:12:35;94166.09;;;9.14;68.17
76086;BME280;64791;0.000;0.000;2023-05-10T09:15:00;94163.59;;;8.89;69.80
76086;BME280;64791;0.000;0.000;2023-05-10T09:17:27;94162.31;;;8.77;70.37
76086;BME280;64791;0.000;0.000;2023-05-10T09:20:01;94155.75;;;8.80;71.10
76086;BME280;64791;0.000;0.000;2023-05-10T09:22:27;94163.69;;;8.71;71.07
76086;BME280;64791;0.000;0.000;2023-05-10T09:25:09;94160.81;;;9.02;70.49
76086;BME280;64791;0.000;0.000;2023-05-10T09:27:36;94153.88;;;9.35;68.35
76086;BME280;64791;0.000;0.000;2023-05-10T09:30:02;94156.28;;;9.52;68.46
76086;BME280;64791;0.000;0.000;2023-05-10T09:32:38;94153.84;;;9.48;69.16
76086;BME280;64791;0.000;0.000;2023-05-10T09:35:12;94150.94;;;9.67;68.55
76086;BME280;64791;0.000;0.000;2023-05-10T09:37:45;94143.91;;;9.79;68.24
76086;BME280;64791;0.000;0.000;2023-05-10T09:40:15;94148.28;;;9.95;67.36
76086;BME280;64791;0.000;0.000;2023-05-10T09:42:42;94142.41;;;10.40;66.81
76086;BME280;64791;0.000;0.000;2023-05-10T09:45:08;94147.28;;;10.54;66.21
76086;BME280;64791;0.000;0.000;2023-05-10T09:47:34;94134.66;;;10.95;66.13
76086;BME280;64791;0.000;0.000;2023-05-10T09:50:02;94147.59;;;11.43;66.56
76086;BME280;64791;0.000;0.000;2023-05-10T09:52:30;94125.91;;;11.62;64.60
76086;BME280;64791;0.000;0.000;2023-05-10T09:54:55;94128.19;;;12.69;63.68
76086;BME280;64791;0.000;0.000;2023-05-10T09:57:21;94124.91;;;13.18;61.63
76086;BME280;64791;0.000;0.000;2023-05-10T09:59:47;94128.59;;;13.21;59.32
76086;BME280;64791;0.000;0.000;2023-05-10T10:02:13;94127.63;;;13.41;60.66
76086;BME280;64791;0.000;0.000;2023-05-10T10:04:39;94120.41;;;12.68;57.84
76086;BME280;64791;0.000;0.000;2023-05-10T10:07:06;94113.94;;;12.88;58.56
76086;BME280;64791;0.000;0.000;2023-05-10T10:09:32;94110.66;;;12.67;58.96
76086;BME280;64791;0.000;0.000;2023-05-10T10:11:59;94114.34;;;12.69;60.24
76086;BME280;64791;0.000;0.000;2023-05-10T10:14:25;94112.56;;;13.19;60.19
76086;BME280;64791;0.000;0.000;2023-05-10T10:16:51;94116.19;;;12.59;58.20
76086;BME280;64791;0.000;0.000;2023-05-10T10:19:17;94100.34;;;12.67;59.35
76086;BME280;64791;0.000;0.000;2023-05-10T10:21:46;94101.06;;;13.30;57.97
76086;BME280;64791;0.000;0.000;2023-05-10T10:24:11;94104.63;;;13.16;58.58
76086;BME280;64791;0.000;0.000;2023-05-10T10:26:38;94106.03;;;13.39;58.62
76086;BME280;64791;0.000;0.000;2023-05-10T10:34:27;94105.66;;;13.35;56.61
76086;BME280;64791;0.000;0.000;2023-05-10T10:36:54;94105.69;;;13.68;57.14
76086;BME280;64791;0.000;0.000;2023-05-10T10:39:20;94098.53;;;13.89;56.09
76086;BME280;64791;0.000;0.000;2023-05-10T10:41:50;94097.81;;;14.13;55.66
76086;BME280;64791;0.000;0.000;2023-05-10T10:47:05;94097.34;;;13.75;55.38
76086;BME280;64791;0.000;0.000;2023-05-10T10:49:37;94105.78;;;14.34;54.42
76086;BME280;64791;0.000;0.000;2023-05-10T10:52:22;94106.84;;;14.38;55.25
76086;BME280;64791;0.000;0.000;2023-05-10T10:54:52;94104.28;;;14.16;53.91
76086;BME280;64791;0.000;0.000;2023-05-10T10:57:18;94097.84;;;13.81;54.79
76086;BME280;64791;0.000;0.000;2023-05-10T10:59:44;94099.16;;;13.80;56.68
76086;BME280;64791;0.000;0.000;2023-05-10T11:02:31;94111.66;;;13.56;56.39
76086;BME280;64791;0.000;0.000;2023-05-10T11:04:56;94112.25;;;13.47;57.25
76086;BME280;64791;0.000;0.000;2023-05-10T11:07:21;94111.16;;;12.96;57.41
76086;BME280;64791;0.000;0.000;2023-05-10T11:09:48;94105.66;;;12.80;57.78
76086;BME280;64791;0.000;0.000;2023-05-10T11:12:13;94118.81;;;12.27;57.95
76086;BME280;64791;0.000;0.000;2023-05-10T11:14:39;94125.44;;;12.54;59.10
76086;BME280;64791;0.000;0.000;2023-05-10T11:20:07;94111.25;;;12.50;59.58
76086;BME280;64791;0.000;0.000;2023-05-10T11:22:48;94109.25;;;12.21;58.11
76086;BME280;64791;0.000;0.000;2023-05-10T11:25:15;94109.00;;;12.03;59.12
76086;BME280;64791;0.000;0.000;2023-05-10T11:27:41;94102.34;;;12.67;59.63
76086;BME280;64791;0.000;0.000;2023-05-10T11:30:07;94099.03;;;12.68;57.93
76086;BME280;64791;0.000;0.000;2023-05-10T11:32:36;94108.13;;;13.09;58.53
76086;BME280;64791;0.000;0.000;2023-05-10T11:35:08;94103.28;;;13.32;56.81
76086;BME280;64791;0.000;0.000;2023-05-10T11:37:34;94107.69;;;13.42;56.78
76086;BME280;64791;0.000;0.000;2023-05-10T11:39:59;94107.25;;;13.53;56.78
76086;BME280;64791;0.000;0.000;2023-05-10T11:42:26;94107.38;;;13.16;55.36
76086;BME280;64791;0.000;0.000;2023-05-10T11:44:52;94103.25;;;13.39;57.68
76086;BME280;64791;0.000;0.000;2023-05-10T11:47:18;94105.91;;;13.62;55.24
76086;BME280;64791;0.000;0.000;2023-05-10T11:49:44;94102.97;;;13.60;56.36
76086;BME280;64791;0.000;0.000;2023-05-10T11:52:10;94106.13;;;13.56;56.29
76086;BME280;64791;0.000;0.000;2023-05-10T11:54:44;94112.75;;;13.93;56.66
76086;BME280;64791;0.000;0.000;2023-05-10T11:57:10;94108.13;;;13.88;55.81
76086;BME280;64791;0.000;0.000;2023-05-10T11:59:36;94112.47;;;14.31;54.38
76086;BME280;64791;0.000;0.000;2023-05-10T12:02:03;94100.66;;;13.74;54.83
76086;BME280;64791;0.000;0.000;2023-05-10T12:04:28;94111.63;;;13.64;55.55
76086;BME280;64791;0.000;0.000;2023-05-10T12:06:55;94108.81;;;13.72;56.87
76086;BME280;64791;0.000;0.000;2023-05-10T12:09:21;94102.75;;;13.66;55.83
76086;BME280;64791;0.000;0.000;2023-05-10T12:11:47;94108.09;;;13.24;55.95
76086;BME280;64791;0.000;0.000;2023-05-10T12:14:12;94103.03;;;12.98;56.02
76086;BME280;64791;0.000;0.000;2023-05-10T12:16:38;94114.72;;;12.73;56.44
76086;BME280;64791;0.000;0.000;2023-05-10T12:19:04;94111.25;;;12.13;58.33
76086;BME280;64791;0.000;0.000;2023-05-10T12:21:30;94107.53;;;11.87;58.79
76086;BME280;64791;0.000;0.000;2023-05-10T12:24:00;94096.69;;;12.27;58.45
76086;BME280;64791;0.000;0.000;2023-05-10T12:26:27;94099.06;;;12.53;58.22
76086;BME280;64791;0.000;0.000;2023-05-10T12:28:53;94098.16;;;12.36;58.21
76086;BME280;64791;0.000;0.000;2023-05-10T12:31:19;94093.75;;;12.18;58.70
76086;BME280;64791;0.000;0.000;2023-05-10T12:33:44;94098.38;;;12.23;60.47
76086;BME280;64791;0.000;0.000;2023-05-10T12:36:12;94095.38;;;11.90;58.86
76086;BME280;64791;0.000;0.000;2023-05-10T12:38:39;94093.50;;;11.78;61.07
76086;BME280;64791;0.000;0.000;2023-05-10T12:41:08;94093.09;;;11.59;61.05
76086;BME280;64791;0.000;0.000;2023-05-10T12:43:34;94084.59;;;11.42;60.55
76086;BME280;64791;0.000;0.000;2023-05-10T12:46:07;94086.66;;;11.49;60.91
76086;BME280;64791;0.000;0.000;2023-05-10T12:48:33;94080.81;;;11.75;60.42
76086;BME280;64791;0.000;0.000;2023-05-10T12:50:59;94082.25;;;11.61;59.69
76086;BME280;64791;0.000;0.000;2023-05-10T12:53:25;94081.44;;;11.30;59.96
76086;BME280;64791;0.000;0.000;2023-05-10T12:55:51;94076.56;;;11.66;60.81
76086;BME280;64791;0.000;0.000;2023-05-10T12:58:17;94076.03;;;11.75;60.71
76086;BME280;64791;0.000;0.000;2023-05-10T13:00:42;94073.63;;;11.94;59.92
76086;BME280;64791;0.000;0.000;2023-05-10T13:03:09;94081.34;;;11.66;60.42
76086;BME280;64791;0.000;0.000;2023-05-10T13:05:35;94079.69;;;11.70;61.16
76086;BME280;64791;0.000;0.000;2023-05-10T13:08:01;94076.72;;;11.61;60.42
76086;BME280;64791;0.000;0.000;2023-05-10T13:10:28;94075.63;;;11.86;62.21
76086;BME280;64791;0.000;0.000;2023-05-10T13:12:55;94069.59;;;12.03;60.34
76086;BME280;64791;0.000;0.000;2023-05-10T13:15:20;94059.09;;;12.09;59.14
76086;BME280;64791;0.000;0.000;2023-05-10T13:17:46;94066.06;;;11.87;58.25
76086;BME280;64791;0.000;0.000;2023-05-10T13:20:12;94060.53;;;11.87;58.33
76086;BME280;64791;0.000;0.000;2023-05-10T13:22:37;94060.31;;;11.63;60.36
76086;BME280;64791;0.000;0.000;2023-05-10T13:25:03;94061.25;;;11.58;60.94
76086;BME280;64791;0.000;0.000;2023-05-10T13:27:29;94060.16;;;11.68;61.39
76086;BME280;64791;0.000;0.000;2023-05-10T13:29:54;94048.56;;;11.70;60.59
76086;BME280;64791;0.000;0.000;2023-05-10T13:32:20;94049.28;;;11.93;59.24
76086;BME280;64791;0.000;0.000;2023-05-10T13:34:46;94043.16;;;12.62;58.30
76086;BME280;64791;0.000;0.000;2023-05-10T13:37:11;94031.19;;;12.52;57.77
76086;BME280;64791;0.000;0.000;2023-05-10T13:39:37;94032.91;;;12.95;57.28
76086;BME280;64791;0.000;0.000;2023-05-10T13:42:03;94025.31;;;12.48;57.63
76086;BME280;64791;0.000;0.000;2023-05-10T13:44:29;94027.28;;;12.63;56.04